sensor_id;sensor_type;location;lat;lon;timestamp;P1;durP1;ratioP1;P2;durP2;ratioP2
60318;SDS011;46163;52.306;5.634;2023-04-03T00:01:01;0.50;;;0.50;;
60318;SDS011;46163;52.306;5.634;2023-04-03T00:03:26;0.60;;;0.60;;
60318;SDS011;46163;52.306;5.634;2023-04-03T00:05:52;0.85;;;0.68;;
60318;SDS011;46163;52.306;5.634;2023-04-03T00:08:18;0.60;;;0.60;;
60318;SDS011;46163;52.306;5.634;2023-04-03T00:10:43;0.60;;;0.60;;
60318;SDS011;46163;52.306;5.634;2023-04-03T00:13:09;0.70;;;0.70;;
60318;SDS011;46163;52.306;5.634;2023-04-03T00:15:35;0.70;;;0.70;;
60318;SDS011;46163;52.306;5.634;2023-04-03T00:18:02;0.70;;;0.70;;
60318;SDS011;46163;52.306;5.634;2023-04-03T00:20:28;0.95;;;0.50;;
60318;SDS011;46163;52.306;5.634;2023-04-03T00:22:54;0.60;;;0.60;;
60318;SDS011;46163;52.306;5.634;2023-04-03T00:25:20;0.70;;;0.70;;
60318;SDS011;46163;52.306;5.634;2023-04-03T00:27:45;0.47;;;0.47;;
60318;SDS011;46163;52.306;5.634;2023-04-03T00:30:13;0.60;;;0.60;;
60318;SDS011;46163;52.306;5.634;2023-04-03T00:32:40;0.50;;;0.50;;
60318;SDS011;46163;52.306;5.634;2023-04-03T00:35:06;0.82;;;0.60;;
60318;SDS011;46163;52.306;5.634;2023-04-03T00:37:32;0.43;;;0.43;;
60318;SDS011;46163;52.306;5.634;2023-04-03T00:40:00;0.70;;;0.70;;
60318;SDS011;46163;52.306;5.634;2023-04-03T00:42:26;0.65;;;0.65;;
60318;SDS011;46163;52.306;5.634;2023-04-03T00:47:20;0.57;;;0.57;;
60318;SDS011;46163;52.306;5.634;2023-04-03T00:49:46;0.80;;;0.80;;
60318;SDS011;46163;52.306;5.634;2023-04-03T00:52:14;0.63;;;0.63;;
60318;SDS011;46163;52.306;5.634;2023-04-03T00:54:42;0.57;;;0.57;;
60318;SDS011;46163;52.306;5.634;2023-04-03T00:57:13;0.60;;;0.60;;
60318;SDS011;46163;52.306;5.634;2023-04-03T00:59:45;0.60;;;0.60;;
60318;SDS011;46163;52.306;5.634;2023-04-03T01:02:18;0.50;;;0.50;;
60318;SDS011;46163;52.306;5.634;2023-04-03T01:04:44;0.60;;;0.60;;
60318;SDS011;46163;52.306;5.634;2023-04-03T01:09:39;0.40;;;0.40;;
60318;SDS011;46163;52.306;5.634;2023-04-03T01:14:42;0.60;;;0.60;;
60318;SDS011;46163;52.306;5.634;2023-04-03T01:20:20;0.80;;;0.80;;
60318;SDS011;46163;52.306;5.634;2023-04-03T01:25:06;0.60;;;0.60;;
60318;SDS011;46163;52.306;5.634;2023-04-03T01:27:32;0.93;;;0.60;;
60318;SDS011;46163;52.306;5.634;2023-04-03T01:29:57;0.75;;;0.75;;
60318;SDS011;46163;52.306;5.634;2023-04-03T01:32:23;0.50;;;0.50;;
60318;SDS011;46163;52.306;5.634;2023-04-03T01:34:48;0.65;;;0.65;;
60318;SDS011;46163;52.306;5.634;2023-04-03T01:37:14;0.50;;;0.50;;
60318;SDS011;46163;52.306;5.634;2023-04-03T01:39:39;0.80;;;0.80;;
60318;SDS011;46163;52.306;5.634;2023-04-03T01:42:05;0.47;;;0.47;;
60318;SDS011;46163;52.306;5.634;2023-04-03T01:44:31;0.32;;;0.32;;
60318;SDS011;46163;52.306;5.634;2023-04-03T01:46:56;0.60;;;0.60;;
60318;SDS011;46163;52.306;5.634;2023-04-03T01:49:22;0.82;;;0.60;;
60318;SDS011;46163;52.306;5.634;2023-04-03T01:51:49;0.40;;;0.40;;
60318;SDS011;46163;52.306;5.634;2023-04-03T01:54:15;0.57;;;0.57;;
60318;SDS011;46163;52.306;5.634;2023-04-03T01:56:42;0.60;;;0.60;;
60318;SDS011;46163;52.306;5.634;2023-04-03T01:59:08;0.60;;;0.60;;
60318;SDS011;46163;52.306;5.634;2023-04-03T02:01:33;0.70;;;0.70;;
60318;SDS011;46163;52.306;5.634;2023-04-03T02:03:59;0.50;;;0.50;;
60318;SDS011;46163;52.306;5.634;2023-04-03T02:06:24;0.85;;;0.60;;
60318;SDS011;46163;52.306;5.634;2023-04-03T02:08:50;0.70;;;0.70;;
60318;SDS011;46163;52.306;5.634;2023-04-03T02:11:15;0.47;;;0.47;;
60318;SDS011;46163;52.306;5.634;2023-04-03T02:13:41;0.60;;;0.60;;
60318;SDS011;46163;52.306;5.634;2023-04-03T02:16:07;0.70;;;0.70;;
60318;SDS011;46163;52.306;5.634;2023-04-03T02:18:35;0.60;;;0.60;;
60318;SDS011;46163;52.306;5.634;2023-04-03T02:21:00;0.60;;;0.60;;
60318;SDS011;46163;52.306;5.634;2023-04-03T02:23:26;0.50;;;0.50;;
60318;SDS011;46163;52.306;5.634;2023-04-03T02:25:51;0.57;;;0.57;;
60318;SDS011;46163;52.306;5.634;2023-04-03T02:28:17;0.77;;;0.77;;
60318;SDS011;46163;52.306;5.634;2023-04-03T02:30:42;0.52;;;0.52;;
60318;SDS011;46163;52.306;5.634;2023-04-03T02:33:08;0.50;;;0.50;;
60318;SDS011;46163;52.306;5.634;2023-04-03T02:35:35;0.65;;;0.65;;
60318;SDS011;46163;52.306;5.634;2023-04-03T02:38:02;0.47;;;0.47;;
60318;SDS011;46163;52.306;5.634;2023-04-03T02:40:27;0.50;;;0.50;;
60318;SDS011;46163;52.306;5.634;2023-04-03T02:42:52;0.88;;;0.88;;
60318;SDS011;46163;52.306;5.634;2023-04-03T02:45:18;0.43;;;0.43;;
60318;SDS011;46163;52.306;5.634;2023-04-03T02:47:43;0.38;;;0.38;;
60318;SDS011;46163;52.306;5.634;2023-04-03T02:50:09;0.35;;;0.35;;
60318;SDS011;46163;52.306;5.634;2023-04-03T02:52:34;0.60;;;0.60;;
60318;SDS011;46163;52.306;5.634;2023-04-03T02:55:00;0.63;;;0.63;;
60318;SDS011;46163;52.306;5.634;2023-04-03T02:57:25;0.70;;;0.70;;
60318;SDS011;46163;52.306;5.634;2023-04-03T02:59:51;0.68;;;0.68;;
60318;SDS011;46163;52.306;5.634;2023-04-03T03:02:16;0.60;;;0.60;;
60318;SDS011;46163;52.306;5.634;2023-04-03T03:04:42;0.60;;;0.60;;
60318;SDS011;46163;52.306;5.634;2023-04-03T03:07:07;0.50;;;0.50;;
60318;SDS011;46163;52.306;5.634;2023-04-03T03:09:35;0.55;;;0.55;;
60318;SDS011;46163;52.306;5.634;2023-04-03T03:12:01;0.40;;;0.40;;
60318;SDS011;46163;52.306;5.634;2023-04-03T03:14:31;0.57;;;0.57;;
60318;SDS011;46163;52.306;5.634;2023-04-03T03:16:56;0.60;;;0.60;;
60318;SDS011;46163;52.306;5.634;2023-04-03T03:19:22;0.50;;;0.50;;
60318;SDS011;46163;52.306;5.634;2023-04-03T03:21:47;0.52;;;0.52;;
60318;SDS011;46163;52.306;5.634;2023-04-03T03:24:13;0.70;;;0.70;;
60318;SDS011;46163;52.306;5.634;2023-04-03T03:26:38;0.70;;;0.70;;
60318;SDS011;46163;52.306;5.634;2023-04-03T03:29:04;0.77;;;0.77;;
60318;SDS011;46163;52.306;5.634;2023-04-03T03:31:29;0.60;;;0.60;;
60318;SDS011;46163;52.306;5.634;2023-04-03T03:33:55;4.95;;;0.73;;
60318;SDS011;46163;52.306;5.634;2023-04-03T03:36:20;0.50;;;0.50;;
60318;SDS011;46163;52.306;5.634;2023-04-03T03:38:48;0.73;;;0.73;;
60318;SDS011;46163;52.306;5.634;2023-04-03T03:41:13;0.60;;;0.60;;
60318;SDS011;46163;52.306;5.634;2023-04-03T03:43:39;0.65;;;0.65;;
60318;SDS011;46163;52.306;5.634;2023-04-03T03:46:04;0.60;;;0.60;;
60318;SDS011;46163;52.306;5.634;2023-04-03T03:48:30;0.52;;;0.52;;
60318;SDS011;46163;52.306;5.634;2023-04-03T03:50:56;0.50;;;0.50;;
60318;SDS011;46163;52.306;5.634;2023-04-03T03:53:21;0.70;;;0.70;;
60318;SDS011;46163;52.306;5.634;2023-04-03T03:55:47;0.55;;;0.50;;
60318;SDS011;46163;52.306;5.634;2023-04-03T03:58:12;0.57;;;0.57;;
60318;SDS011;46163;52.306;5.634;2023-04-03T04:00:37;1.35;;;0.77;;
60318;SDS011;46163;52.306;5.634;2023-04-03T04:03:03;0.60;;;0.60;;
60318;SDS011;46163;52.306;5.634;2023-04-03T04:05:28;0.50;;;0.50;;
60318;SDS011;46163;52.306;5.634;2023-04-03T04:07:54;0.60;;;0.60;;
60318;SDS011;46163;52.306;5.634;2023-04-03T04:10:19;0.98;;;0.57;;
60318;SDS011;46163;52.306;5.634;2023-04-03T04:12:45;0.52;;;0.52;;
60318;SDS011;46163;52.306;5.634;2023-04-03T04:15:10;0.60;;;0.60;;
60318;SDS011;46163;52.306;5.634;2023-04-03T04:17:36;0.50;;;0.50;;
60318;SDS011;46163;52.306;5.634;2023-04-03T04:20:02;0.70;;;0.60;;
60318;SDS011;46163;52.306;5.634;2023-04-03T04:22:29;0.50;;;0.50;;
60318;SDS011;46163;52.306;5.634;2023-04-03T04:24:55;0.73;;;0.73;;
60318;SDS011;46163;52.306;5.634;2023-04-03T04:27:20;0.60;;;0.60;;
60318;SDS011;46163;52.306;5.634;2023-04-03T04:29:46;0.45;;;0.45;;
60318;SDS011;46163;52.306;5.634;2023-04-03T04:32:13;0.40;;;0.40;;
60318;SDS011;46163;52.306;5.634;2023-04-03T04:34:39;0.60;;;0.60;;
60318;SDS011;46163;52.306;5.634;2023-04-03T04:37:05;0.57;;;0.57;;
60318;SDS011;46163;52.306;5.634;2023-04-03T04:39:30;0.47;;;0.47;;
60318;SDS011;46163;52.306;5.634;2023-04-03T04:41:55;0.60;;;0.60;;
60318;SDS011;46163;52.306;5.634;2023-04-03T04:44:21;0.60;;;0.60;;
60318;SDS011;46163;52.306;5.634;2023-04-03T04:46:49;0.98;;;0.73;;
60318;SDS011;46163;52.306;5.634;2023-04-03T04:49:17;0.63;;;0.55;;
60318;SDS011;46163;52.306;5.634;2023-04-03T04:51:43;0.50;;;0.50;;
60318;SDS011;46163;52.306;5.634;2023-04-03T04:54:08;0.60;;;0.60;;
60318;SDS011;46163;52.306;5.634;2023-04-03T04:56:33;0.55;;;0.55;;
60318;SDS011;46163;52.306;5.634;2023-04-03T04:58:59;0.60;;;0.60;;
60318;SDS011;46163;52.306;5.634;2023-04-03T05:01:24;0.60;;;0.60;;
60318;SDS011;46163;52.306;5.634;2023-04-03T05:03:50;0.45;;;0.45;;
60318;SDS011;46163;52.306;5.634;2023-04-03T05:06:15;0.43;;;0.40;;
60318;SDS011;46163;52.306;5.634;2023-04-03T05:08:41;0.60;;;0.60;;
60318;SDS011;46163;52.306;5.634;2023-04-03T05:11:06;0.50;;;0.50;;
60318;SDS011;46163;52.306;5.634;2023-04-03T05:13:32;0.50;;;0.50;;
60318;SDS011;46163;52.306;5.634;2023-04-03T05:15:57;0.40;;;0.40;;
60318;SDS011;46163;52.306;5.634;2023-04-03T05:18:23;0.63;;;0.63;;
60318;SDS011;46163;52.306;5.634;2023-04-03T05:20:48;0.80;;;0.80;;
60318;SDS011;46163;52.306;5.634;2023-04-03T05:23:15;0.60;;;0.60;;
60318;SDS011;46163;52.306;5.634;2023-04-03T05:25:41;0.60;;;0.60;;
60318;SDS011;46163;52.306;5.634;2023-04-03T05:28:06;0.50;;;0.50;;
60318;SDS011;46163;52.306;5.634;2023-04-03T05:30:32;0.60;;;0.60;;
60318;SDS011;46163;52.306;5.634;2023-04-03T05:32:58;0.63;;;0.63;;
60318;SDS011;46163;52.306;5.634;2023-04-03T05:35:24;0.50;;;0.50;;
60318;SDS011;46163;52.306;5.634;2023-04-03T05:37:49;0.70;;;0.70;;
60318;SDS011;46163;52.306;5.634;2023-04-03T05:40:15;0.60;;;0.60;;
60318;SDS011;46163;52.306;5.634;2023-04-03T05:42:40;0.77;;;0.77;;
60318;SDS011;46163;52.306;5.634;2023-04-03T05:45:06;0.65;;;0.65;;
60318;SDS011;46163;52.306;5.634;2023-04-03T05:47:31;0.77;;;0.77;;
60318;SDS011;46163;52.306;5.634;2023-04-03T05:49:57;0.60;;;0.60;;
60318;SDS011;46163;52.306;5.634;2023-04-03T05:52:29;0.63;;;0.63;;
60318;SDS011;46163;52.306;5.634;2023-04-03T05:54:56;0.73;;;0.73;;
60318;SDS011;46163;52.306;5.634;2023-04-03T05:57:22;0.65;;;0.65;;
60318;SDS011;46163;52.306;5.634;2023-04-03T05:59:48;0.80;;;0.80;;
60318;SDS011;46163;52.306;5.634;2023-04-03T06:02:15;0.70;;;0.70;;
60318;SDS011;46163;52.306;5.634;2023-04-03T06:04:42;3.10;;;0.63;;
60318;SDS011;46163;52.306;5.634;2023-04-03T06:07:16;0.60;;;0.60;;
60318;SDS011;46163;52.306;5.634;2023-04-03T06:09:44;1.15;;;0.90;;
60318;SDS011;46163;52.306;5.634;2023-04-03T06:12:10;0.70;;;0.70;;
60318;SDS011;46163;52.306;5.634;2023-04-03T06:14:36;0.60;;;0.60;;
60318;SDS011;46163;52.306;5.634;2023-04-03T06:17:02;0.70;;;0.70;;
60318;SDS011;46163;52.306;5.634;2023-04-03T06:19:28;0.90;;;0.70;;
60318;SDS011;46163;52.306;5.634;2023-04-03T06:21:53;0.73;;;0.73;;
60318;SDS011;46163;52.306;5.634;2023-04-03T06:24:19;0.80;;;0.80;;
60318;SDS011;46163;52.306;5.634;2023-04-03T06:26:47;0.60;;;0.60;;
60318;SDS011;46163;52.306;5.634;2023-04-03T06:29:13;0.68;;;0.60;;
60318;SDS011;46163;52.306;5.634;2023-04-03T06:31:39;0.73;;;0.73;;
60318;SDS011;46163;52.306;5.634;2023-04-03T06:34:07;1.05;;;0.55;;
60318;SDS011;46163;52.306;5.634;2023-04-03T06:36:32;2.10;;;0.90;;
60318;SDS011;46163;52.306;5.634;2023-04-03T06:38:58;1.33;;;0.80;;
60318;SDS011;46163;52.306;5.634;2023-04-03T06:41:24;0.75;;;0.70;;
60318;SDS011;46163;52.306;5.634;2023-04-03T06:43:52;0.65;;;0.60;;
60318;SDS011;46163;52.306;5.634;2023-04-03T06:46:18;2.55;;;1.10;;
60318;SDS011;46163;52.306;5.634;2023-04-03T06:48:46;0.60;;;0.60;;
60318;SDS011;46163;52.306;5.634;2023-04-03T06:51:22;0.80;;;0.80;;
60318;SDS011;46163;52.306;5.634;2023-04-03T06:53:52;0.70;;;0.70;;
60318;SDS011;46163;52.306;5.634;2023-04-03T06:56:18;0.60;;;0.60;;
60318;SDS011;46163;52.306;5.634;2023-04-03T06:58:44;1.10;;;0.82;;
60318;SDS011;46163;52.306;5.634;2023-04-03T07:01:11;0.60;;;0.60;;
60318;SDS011;46163;52.306;5.634;2023-04-03T07:03:39;1.17;;;0.90;;
60318;SDS011;46163;52.306;5.634;2023-04-03T07:06:05;0.70;;;0.70;;
60318;SDS011;46163;52.306;5.634;2023-04-03T07:08:32;0.60;;;0.60;;
60318;SDS011;46163;52.306;5.634;2023-04-03T07:10:58;1.02;;;0.63;;
60318;SDS011;46163;52.306;5.634;2023-04-03T07:13:23;0.68;;;0.68;;
60318;SDS011;46163;52.306;5.634;2023-04-03T07:15:49;0.90;;;0.90;;
60318;SDS011;46163;52.306;5.634;2023-04-03T07:18:15;0.85;;;0.85;;
60318;SDS011;46163;52.306;5.634;2023-04-03T07:20:42;0.80;;;0.80;;
60318;SDS011;46163;52.306;5.634;2023-04-03T07:23:07;0.52;;;0.52;;
60318;SDS011;46163;52.306;5.634;2023-04-03T07:25:36;0.60;;;0.57;;
60318;SDS011;46163;52.306;5.634;2023-04-03T07:28:02;1.48;;;0.68;;
60318;SDS011;46163;52.306;5.634;2023-04-03T07:30:30;1.00;;;0.90;;
60318;SDS011;46163;52.306;5.634;2023-04-03T07:32:56;2.63;;;1.05;;
60318;SDS011;46163;52.306;5.634;2023-04-03T07:35:21;0.73;;;0.73;;
60318;SDS011;46163;52.306;5.634;2023-04-03T07:37:47;1.30;;;0.90;;
60318;SDS011;46163;52.306;5.634;2023-04-03T07:40:13;0.90;;;0.80;;
60318;SDS011;46163;52.306;5.634;2023-04-03T07:42:38;1.00;;;0.80;;
60318;SDS011;46163;52.306;5.634;2023-04-03T07:45:04;2.30;;;0.75;;
60318;SDS011;46163;52.306;5.634;2023-04-03T07:47:30;2.28;;;0.80;;
60318;SDS011;46163;52.306;5.634;2023-04-03T07:49:56;1.55;;;0.90;;
60318;SDS011;46163;52.306;5.634;2023-04-03T07:52:22;1.75;;;0.80;;
60318;SDS011;46163;52.306;5.634;2023-04-03T07:54:48;0.98;;;0.88;;
60318;SDS011;46163;52.306;5.634;2023-04-03T07:57:15;8.48;;;0.95;;
60318;SDS011;46163;52.306;5.634;2023-04-03T07:59:41;2.05;;;0.80;;
60318;SDS011;46163;52.306;5.634;2023-04-03T08:02:10;2.53;;;0.95;;
60318;SDS011;46163;52.306;5.634;2023-04-03T08:04:36;1.45;;;0.60;;
60318;SDS011;46163;52.306;5.634;2023-04-03T08:07:02;1.65;;;0.80;;
60318;SDS011;46163;52.306;5.634;2023-04-03T08:09:27;0.60;;;0.60;;
60318;SDS011;46163;52.306;5.634;2023-04-03T08:11:53;1.40;;;0.82;;
60318;SDS011;46163;52.306;5.634;2023-04-03T08:14:19;0.93;;;0.60;;
60318;SDS011;46163;52.306;5.634;2023-04-03T08:16:46;0.65;;;0.65;;
60318;SDS011;46163;52.306;5.634;2023-04-03T08:19:12;0.88;;;0.80;;
60318;SDS011;46163;52.306;5.634;2023-04-03T08:21:41;0.70;;;0.70;;
60318;SDS011;46163;52.306;5.634;2023-04-03T08:24:07;0.82;;;0.70;;
60318;SDS011;46163;52.306;5.634;2023-04-03T08:26:34;1.45;;;1.10;;
60318;SDS011;46163;52.306;5.634;2023-04-03T08:29:00;0.80;;;0.80;;
60318;SDS011;46163;52.306;5.634;2023-04-03T08:31:25;1.10;;;0.80;;
60318;SDS011;46163;52.306;5.634;2023-04-03T08:33:51;1.00;;;0.90;;
60318;SDS011;46163;52.306;5.634;2023-04-03T08:36:21;0.63;;;0.63;;
60318;SDS011;46163;52.306;5.634;2023-04-03T08:38:49;1.70;;;0.50;;
60318;SDS011;46163;52.306;5.634;2023-04-03T08:49:28;0.80;;;0.80;;
60318;SDS011;46163;52.306;5.634;2023-04-03T08:51:57;0.60;;;0.60;;
60318;SDS011;46163;52.306;5.634;2023-04-03T08:54:33;0.93;;;0.77;;
60318;SDS011;46163;52.306;5.634;2023-04-03T08:57:02;0.85;;;0.82;;
60318;SDS011;46163;52.306;5.634;2023-04-03T08:59:32;0.82;;;0.70;;
60318;SDS011;46163;52.306;5.634;2023-04-03T09:02:01;0.63;;;0.63;;
60318;SDS011;46163;52.306;5.634;2023-04-03T09:04:40;1.13;;;0.90;;
60318;SDS011;46163;52.306;5.634;2023-04-03T09:07:07;0.75;;;0.70;;
60318;SDS011;46163;52.306;5.634;2023-04-03T09:09:41;0.47;;;0.47;;
60318;SDS011;46163;52.306;5.634;2023-04-03T09:14:46;0.60;;;0.60;;
60318;SDS011;46163;52.306;5.634;2023-04-03T09:23:28;0.60;;;0.60;;
60318;SDS011;46163;52.306;5.634;2023-04-03T09:26:02;1.85;;;0.93;;
60318;SDS011;46163;52.306;5.634;2023-04-03T09:28:35;0.60;;;0.60;;
60318;SDS011;46163;52.306;5.634;2023-04-03T09:31:21;0.70;;;0.70;;
60318;SDS011;46163;52.306;5.634;2023-04-03T09:33:58;1.00;;;0.90;;
60318;SDS011;46163;52.306;5.634;2023-04-03T09:39:11;1.00;;;0.90;;
60318;SDS011;46163;52.306;5.634;2023-04-03T09:42:01;0.88;;;0.73;;
60318;SDS011;46163;52.306;5.634;2023-04-03T09:44:37;1.48;;;0.82;;
60318;SDS011;46163;52.306;5.634;2023-04-03T09:49:48;0.75;;;0.70;;
60318;SDS011;46163;52.306;5.634;2023-04-03T09:52:22;1.02;;;0.90;;
60318;SDS011;46163;52.306;5.634;2023-04-03T09:54:50;0.90;;;0.90;;
60318;SDS011;46163;52.306;5.634;2023-04-03T09:57:16;0.70;;;0.68;;
60318;SDS011;46163;52.306;5.634;2023-04-03T09:59:44;0.90;;;0.80;;
60318;SDS011;46163;52.306;5.634;2023-04-03T10:04:41;0.80;;;0.80;;
60318;SDS011;46163;52.306;5.634;2023-04-03T10:09:59;0.95;;;0.70;;
60318;SDS011;46163;52.306;5.634;2023-04-03T10:12:42;0.68;;;0.68;;
60318;SDS011;46163;52.306;5.634;2023-04-03T10:15:13;0.60;;;0.60;;
60318;SDS011;46163;52.306;5.634;2023-04-03T10:23:17;0.82;;;0.82;;
60318;SDS011;46163;52.306;5.634;2023-04-03T10:34:42;1.30;;;0.70;;
60318;SDS011;46163;52.306;5.634;2023-04-03T10:37:21;1.33;;;0.60;;
60318;SDS011;46163;52.306;5.634;2023-04-03T10:39:53;0.50;;;0.50;;
60318;SDS011;46163;52.306;5.634;2023-04-03T10:42:28;1.33;;;0.80;;
60318;SDS011;46163;52.306;5.634;2023-04-03T10:45:03;0.60;;;0.60;;
60318;SDS011;46163;52.306;5.634;2023-04-03T10:53:01;0.70;;;0.70;;
60318;SDS011;46163;52.306;5.634;2023-04-03T10:58:01;0.50;;;0.40;;
60318;SDS011;46163;52.306;5.634;2023-04-03T11:00:47;1.13;;;0.80;;
60318;SDS011;46163;52.306;5.634;2023-04-03T11:06:00;1.33;;;0.88;;
60318;SDS011;46163;52.306;5.634;2023-04-03T11:11:05;0.70;;;0.70;;
60318;SDS011;46163;52.306;5.634;2023-04-03T11:13:42;0.60;;;0.60;;
60318;SDS011;46163;52.306;5.634;2023-04-03T11:16:19;2.15;;;0.60;;
60318;SDS011;46163;52.306;5.634;2023-04-03T11:18:51;1.45;;;0.73;;
60318;SDS011;46163;52.306;5.634;2023-04-03T11:21:29;1.00;;;0.57;;
60318;SDS011;46163;52.306;5.634;2023-04-03T11:24:05;1.85;;;0.75;;
60318;SDS011;46163;52.306;5.634;2023-04-03T11:26:38;0.60;;;0.60;;
60318;SDS011;46163;52.306;5.634;2023-04-03T11:29:10;0.85;;;0.77;;
60318;SDS011;46163;52.306;5.634;2023-04-03T11:31:51;1.55;;;1.02;;
60318;SDS011;46163;52.306;5.634;2023-04-03T11:34:45;0.70;;;0.70;;
60318;SDS011;46163;52.306;5.634;2023-04-03T11:39:50;1.23;;;1.15;;
60318;SDS011;46163;52.306;5.634;2023-04-03T11:45:23;6.18;;;3.10;;
60318;SDS011;46163;52.306;5.634;2023-04-03T12:05:55;11.23;;;4.18;;
60318;SDS011;46163;52.306;5.634;2023-04-03T12:48:30;4.35;;;2.22;;
60318;SDS011;46163;52.306;5.634;2023-04-03T12:50:58;4.85;;;2.53;;
60318;SDS011;46163;52.306;5.634;2023-04-03T12:53:25;4.80;;;2.38;;
60318;SDS011;46163;52.306;5.634;2023-04-03T12:55:56;4.13;;;2.33;;
60318;SDS011;46163;52.306;5.634;2023-04-03T13:01:03;3.30;;;2.53;;
60318;SDS011;46163;52.306;5.634;2023-04-03T13:03:47;3.15;;;2.10;;
60318;SDS011;46163;52.306;5.634;2023-04-03T13:06:18;3.20;;;1.85;;
60318;SDS011;46163;52.306;5.634;2023-04-03T13:08:58;4.55;;;2.25;;
60318;SDS011;46163;52.306;5.634;2023-04-03T13:11:27;4.72;;;2.25;;
60318;SDS011;46163;52.306;5.634;2023-04-03T13:14:12;2.92;;;1.90;;
60318;SDS011;46163;52.306;5.634;2023-04-03T13:16:52;5.72;;;2.60;;
60318;SDS011;46163;52.306;5.634;2023-04-03T13:19:19;3.58;;;2.20;;
60318;SDS011;46163;52.306;5.634;2023-04-03T13:21:47;3.80;;;1.90;;
60318;SDS011;46163;52.306;5.634;2023-04-03T13:24:14;3.08;;;2.10;;
60318;SDS011;46163;52.306;5.634;2023-04-03T13:26:40;3.33;;;1.90;;
60318;SDS011;46163;52.306;5.634;2023-04-03T13:29:07;6.10;;;2.03;;
60318;SDS011;46163;52.306;5.634;2023-04-03T13:31:51;2.95;;;1.63;;
60318;SDS011;46163;52.306;5.634;2023-04-03T13:34:19;5.47;;;1.90;;
60318;SDS011;46163;52.306;5.634;2023-04-03T13:37:11;5.53;;;2.00;;
60318;SDS011;46163;52.306;5.634;2023-04-03T13:39:36;1.63;;;1.50;;
60318;SDS011;46163;52.306;5.634;2023-04-03T13:42:20;3.35;;;1.92;;
60318;SDS011;46163;52.306;5.634;2023-04-03T13:44:48;3.05;;;2.22;;
60318;SDS011;46163;52.306;5.634;2023-04-03T13:47:23;2.58;;;1.67;;
60318;SDS011;46163;52.306;5.634;2023-04-03T13:50:32;1.52;;;1.33;;
60318;SDS011;46163;52.306;5.634;2023-04-03T13:55:28;3.30;;;1.50;;
60318;SDS011;46163;52.306;5.634;2023-04-03T14:06:15;2.20;;;1.50;;
60318;SDS011;46163;52.306;5.634;2023-04-03T14:08:41;2.22;;;1.70;;
60318;SDS011;46163;52.306;5.634;2023-04-03T14:11:09;1.98;;;1.50;;
60318;SDS011;46163;52.306;5.634;2023-04-03T14:13:39;2.72;;;1.50;;
60318;SDS011;46163;52.306;5.634;2023-04-03T14:16:04;3.17;;;1.58;;
60318;SDS011;46163;52.306;5.634;2023-04-03T14:18:30;2.47;;;1.45;;
60318;SDS011;46163;52.306;5.634;2023-04-03T14:20:55;2.30;;;1.33;;
60318;SDS011;46163;52.306;5.634;2023-04-03T14:23:23;4.18;;;1.55;;
60318;SDS011;46163;52.306;5.634;2023-04-03T14:25:48;2.17;;;1.48;;
60318;SDS011;46163;52.306;5.634;2023-04-03T14:28:18;2.92;;;1.50;;
60318;SDS011;46163;52.306;5.634;2023-04-03T14:30:46;1.90;;;1.60;;
60318;SDS011;46163;52.306;5.634;2023-04-03T14:33:16;2.28;;;1.70;;
60318;SDS011;46163;52.306;5.634;2023-04-03T14:35:45;1.92;;;1.45;;
60318;SDS011;46163;52.306;5.634;2023-04-03T14:38:13;2.50;;;1.48;;
60318;SDS011;46163;52.306;5.634;2023-04-03T14:40:47;2.17;;;1.60;;
60318;SDS011;46163;52.306;5.634;2023-04-03T14:43:12;4.22;;;1.58;;
60318;SDS011;46163;52.306;5.634;2023-04-03T14:45:38;3.00;;;1.40;;
60318;SDS011;46163;52.306;5.634;2023-04-03T14:48:04;3.25;;;1.20;;
60318;SDS011;46163;52.306;5.634;2023-04-03T14:50:34;1.92;;;1.20;;
60318;SDS011;46163;52.306;5.634;2023-04-03T14:53:02;1.65;;;1.05;;
60318;SDS011;46163;52.306;5.634;2023-04-03T14:55:28;1.70;;;1.17;;
60318;SDS011;46163;52.306;5.634;2023-04-03T14:57:53;1.05;;;1.02;;
60318;SDS011;46163;52.306;5.634;2023-04-03T15:00:20;1.45;;;1.13;;
60318;SDS011;46163;52.306;5.634;2023-04-03T15:02:47;2.53;;;1.30;;
60318;SDS011;46163;52.306;5.634;2023-04-03T15:05:13;0.93;;;0.90;;
60318;SDS011;46163;52.306;5.634;2023-04-03T15:07:49;2.30;;;1.10;;
60318;SDS011;46163;52.306;5.634;2023-04-03T15:10:22;1.23;;;1.10;;
60318;SDS011;46163;52.306;5.634;2023-04-03T15:12:52;1.10;;;1.02;;
60318;SDS011;46163;52.306;5.634;2023-04-03T15:15:18;1.35;;;1.25;;
60318;SDS011;46163;52.306;5.634;2023-04-03T15:17:45;1.85;;;1.13;;
60318;SDS011;46163;52.306;5.634;2023-04-03T15:20:16;1.23;;;1.13;;
60318;SDS011;46163;52.306;5.634;2023-04-03T15:22:43;1.40;;;1.08;;
60318;SDS011;46163;52.306;5.634;2023-04-03T15:25:09;1.70;;;1.13;;
60318;SDS011;46163;52.306;5.634;2023-04-03T15:27:35;1.60;;;1.02;;
60318;SDS011;46163;52.306;5.634;2023-04-03T15:30:03;1.37;;;1.10;;
60318;SDS011;46163;52.306;5.634;2023-04-03T15:32:30;1.15;;;1.05;;
60318;SDS011;46163;52.306;5.634;2023-04-03T15:34:56;1.13;;;0.95;;
60318;SDS011;46163;52.306;5.634;2023-04-03T15:37:21;0.80;;;0.80;;
60318;SDS011;46163;52.306;5.634;2023-04-03T15:39:47;0.73;;;0.73;;
60318;SDS011;46163;52.306;5.634;2023-04-03T15:42:12;0.95;;;0.90;;
60318;SDS011;46163;52.306;5.634;2023-04-03T15:44:38;2.67;;;1.10;;
60318;SDS011;46163;52.306;5.634;2023-04-03T15:47:04;1.65;;;1.00;;
60318;SDS011;46163;52.306;5.634;2023-04-03T15:49:30;1.38;;;1.00;;
60318;SDS011;46163;52.306;5.634;2023-04-03T15:51:57;1.45;;;1.17;;
60318;SDS011;46163;52.306;5.634;2023-04-03T15:54:23;1.10;;;1.00;;
60318;SDS011;46163;52.306;5.634;2023-04-03T15:56:49;1.27;;;1.13;;
60318;SDS011;46163;52.306;5.634;2023-04-03T15:59:15;1.10;;;1.00;;
60318;SDS011;46163;52.306;5.634;2023-04-03T16:01:41;1.30;;;1.20;;
60318;SDS011;46163;52.306;5.634;2023-04-03T16:04:07;4.20;;;1.30;;
60318;SDS011;46163;52.306;5.634;2023-04-03T16:06:34;1.25;;;0.85;;
60318;SDS011;46163;52.306;5.634;2023-04-03T16:09:00;1.33;;;1.08;;
60318;SDS011;46163;52.306;5.634;2023-04-03T16:11:26;0.80;;;0.80;;
60318;SDS011;46163;52.306;5.634;2023-04-03T16:13:54;1.15;;;1.05;;
60318;SDS011;46163;52.306;5.634;2023-04-03T16:16:22;1.27;;;0.90;;
60318;SDS011;46163;52.306;5.634;2023-04-03T16:18:52;1.13;;;1.02;;
60318;SDS011;46163;52.306;5.634;2023-04-03T16:21:19;1.02;;;0.60;;
60318;SDS011;46163;52.306;5.634;2023-04-03T16:23:44;1.00;;;0.80;;
60318;SDS011;46163;52.306;5.634;2023-04-03T16:26:11;4.10;;;0.90;;
60318;SDS011;46163;52.306;5.634;2023-04-03T16:28:37;1.98;;;0.77;;
60318;SDS011;46163;52.306;5.634;2023-04-03T16:31:02;2.35;;;0.88;;
60318;SDS011;46163;52.306;5.634;2023-04-03T16:33:30;5.85;;;1.00;;
60318;SDS011;46163;52.306;5.634;2023-04-03T16:35:58;2.45;;;0.63;;
60318;SDS011;46163;52.306;5.634;2023-04-03T16:38:24;2.72;;;0.82;;
60318;SDS011;46163;52.306;5.634;2023-04-03T16:40:50;0.60;;;0.60;;
60318;SDS011;46163;52.306;5.634;2023-04-03T16:43:17;1.50;;;1.07;;
60318;SDS011;46163;52.306;5.634;2023-04-03T16:45:42;1.17;;;1.00;;
60318;SDS011;46163;52.306;5.634;2023-04-03T16:48:08;1.92;;;1.10;;
60318;SDS011;46163;52.306;5.634;2023-04-03T16:50:33;0.85;;;0.80;;
60318;SDS011;46163;52.306;5.634;2023-04-03T16:52:59;1.50;;;0.77;;
60318;SDS011;46163;52.306;5.634;2023-04-03T16:55:25;1.48;;;1.02;;
60318;SDS011;46163;52.306;5.634;2023-04-03T16:57:50;1.25;;;1.15;;
60318;SDS011;46163;52.306;5.634;2023-04-03T17:00:16;2.25;;;1.27;;
60318;SDS011;46163;52.306;5.634;2023-04-03T17:02:41;1.23;;;0.82;;
60318;SDS011;46163;52.306;5.634;2023-04-03T17:05:07;1.35;;;0.90;;
60318;SDS011;46163;52.306;5.634;2023-04-03T17:07:33;1.75;;;0.93;;
60318;SDS011;46163;52.306;5.634;2023-04-03T17:09:58;2.05;;;1.00;;
60318;SDS011;46163;52.306;5.634;2023-04-03T17:12:25;1.88;;;1.00;;
60318;SDS011;46163;52.306;5.634;2023-04-03T17:14:50;1.30;;;1.20;;
60318;SDS011;46163;52.306;5.634;2023-04-03T17:17:17;1.00;;;0.90;;